Ana Sayfa
METAR-TAF:

METAR-TAF

Havaalanları :

Mount Washington Regional Airport

Whitefield, New Hampshire, Amerika Birleşik Devletleri

Enlem: 44-21-58N, Boylam: 071-33-09W, yükseklik: 327 m

Güncel hava durumu gözlemi

Rapor saat 23:52 UTC de 33 dakika önce yapıldı.
Rüzgar kuzeybatıdan 5 kt
Sıcaklık -12°C
Nem 72%
Basınç 1010 hPa
Görüş mesafesi: 16.1 km
2700 ft yükseklikte çok bulutlu

METAR: KHIE 192352Z AUTO 31005KT 10SM OVC027 M12/M16 A2982 RMK AO2 SLP119 60000 T11171156 11028 21117 53048

Saat: 19:25 (00:25 UTC)

Tahmin

Rapor saat 23:20 UTC de 1 saat ve 5 dakika önce yapıldı.
Ayın 20'si saat 00 UTC'den ayın 20'si saat 24 UTC'ye kadar geçerli Tahmin
Rüzgar kuzey/kuzeybatıdan 3 kt
Görüş mesafesi: 10 km
2500 ft yükseklikte az bulutlu
5000 ft yükseklikte çok bulutlu
Ayın 20'si saat 1400 UTC'den
Rüzgar kuzeybatıdan 2 kt
Görüş mesafesi: 10 km
Açık gökyüzü

TAF: KHIE 192320Z 2000/2024 33003KT P6SM FEW025 OVC050 FM201400 32002KT P6SM SKC

4.000'den fazla havaalanı için hava durumu gözlemleri ve tahminleri (METAR ve TAF raporları).

Kullanılabilir istasyonlar harita üzerinde sarı ve kırmızı noktalarla gösterilir.

İstasyonun adını görmek için fareyi noktanın üzerinde gezdirin.

Sonrasında hava gözlem ve tahminlerini görmek için tıklayın.

Haritayı değiştirmek için: yaklaştırmak için siyah artı işaretli yeşil düğmeye ve uzaklaştırmak için de eksi işaretli düğmeye hızla tıklayın; bitişik haritalar için yeşil okları kullanın.


METAR-TAF: